createdAt,value
2022-09-15T00:02:04.573Z,12.47
2022-09-15T00:07:06.422Z,12.51
2022-09-15T00:12:07.757Z,12.55
2022-09-15T00:17:09.095Z,12.70
2022-09-15T00:22:10.506Z,12.79
2022-09-15T00:27:11.792Z,12.84
2022-09-15T00:32:13.100Z,12.84
2022-09-15T00:37:14.361Z,12.77
2022-09-15T00:42:20.188Z,12.81
2022-09-15T00:47:23.387Z,12.94
2022-09-15T00:52:24.727Z,12.94
2022-09-15T00:57:29.691Z,13.02
2022-09-15T01:02:35.076Z,12.99
2022-09-15T01:07:41.178Z,12.96
2022-09-15T01:12:42.807Z,12.96
2022-09-15T01:18:07.342Z,12.97
2022-09-15T01:23:34.897Z,12.95
2022-09-15T01:28:44.409Z,12.91
2022-09-15T01:33:49.573Z,12.95
2022-09-15T01:38:56.687Z,12.98
2022-09-15T01:44:09.059Z,12.95
2022-09-15T01:49:12.507Z,13.03
2022-09-15T01:54:15.168Z,12.99
2022-09-15T01:59:16.479Z,12.98
2022-09-15T02:04:18.395Z,12.98
2022-09-15T02:09:24.843Z,12.98
2022-09-15T02:14:47.243Z,12.93
2022-09-15T02:19:56.192Z,12.69
2022-09-15T02:25:12.671Z,12.56
2022-09-15T02:30:15.937Z,12.61
2022-09-15T02:35:17.811Z,12.55
2022-09-15T02:40:19.493Z,12.60
2022-09-15T02:45:20.905Z,12.52
2022-09-15T02:50:22.356Z,12.59
2022-09-15T02:55:23.858Z,12.61
2022-09-15T03:00:26.133Z,12.59
2022-09-15T03:05:28.634Z,12.63
2022-09-15T03:10:30.435Z,12.62
2022-09-15T03:15:31.936Z,12.60
2022-09-15T03:20:33.266Z,12.59
2022-09-15T03:25:34.744Z,12.63
2022-09-15T03:30:36.072Z,12.56
2022-09-15T03:41:44.342Z,12.62
2022-09-15T03:46:45.880Z,12.63
2022-09-15T03:51:47.343Z,12.59
2022-09-15T03:56:49.088Z,12.64
2022-09-15T04:01:50.843Z,12.64
2022-09-15T04:06:53.156Z,12.63
2022-09-15T04:11:54.439Z,12.61
2022-09-15T04:16:55.853Z,12.61
2022-09-15T04:21:57.122Z,12.63
2022-09-15T04:26:58.452Z,12.60
2022-09-15T04:31:59.878Z,12.60
2022-09-15T04:37:01.209Z,12.63
2022-09-15T04:42:05.748Z,12.55
2022-09-15T04:47:07.318Z,12.66
2022-09-15T04:52:10.123Z,12.72
2022-09-15T04:57:11.954Z,12.70
2022-09-15T05:02:13.297Z,12.64
2022-09-15T05:07:14.803Z,12.60
2022-09-15T05:12:16.133Z,12.64
2022-09-15T05:17:17.478Z,12.67
2022-09-15T05:22:19.091Z,12.78
2022-09-15T05:27:20.444Z,12.76
2022-09-15T05:32:21.767Z,12.76
2022-09-15T05:37:23.103Z,12.78
2022-09-15T05:42:24.605Z,12.77
2022-09-15T05:47:25.974Z,12.86
2022-09-15T05:52:27.457Z,12.89
2022-09-15T05:57:28.822Z,12.89
2022-09-15T06:02:30.147Z,12.94
2022-09-15T06:07:31.534Z,12.97
2022-09-15T06:12:32.988Z,12.97
2022-09-15T06:17:34.356Z,13.06
2022-09-15T06:22:35.620Z,13.13
2022-09-15T06:27:37.031Z,13.28
2022-09-15T06:32:38.384Z,13.44
2022-09-15T06:37:39.709Z,13.55
2022-09-15T06:42:41.166Z,13.58
2022-09-15T06:47:42.563Z,13.68
2022-09-15T06:52:43.867Z,13.58
2022-09-15T06:57:45.186Z,13.74
2022-09-15T07:02:49.938Z,13.91
2022-09-15T07:07:51.677Z,14.03
2022-09-15T07:12:53.009Z,14.05
2022-09-15T07:17:54.427Z,14.15
2022-09-15T07:22:55.773Z,14.27
2022-09-15T07:27:57.066Z,14.39
2022-09-15T07:32:58.385Z,14.50
2022-09-15T07:38:00.572Z,14.72
2022-09-15T07:43:01.876Z,14.90
2022-09-15T07:48:03.365Z,14.86
2022-09-15T07:53:04.807Z,14.82
2022-09-15T07:58:06.087Z,14.94
2022-09-15T08:03:07.452Z,14.90
2022-09-15T08:08:08.806Z,14.95
2022-09-15T08:13:10.081Z,14.89
2022-09-15T08:18:11.719Z,14.89
2022-09-15T08:23:13.016Z,15.01
2022-09-15T08:28:14.356Z,15.07
2022-09-15T08:33:15.669Z,15.30
2022-09-15T08:38:17.028Z,15.27
2022-09-15T08:43:22.970Z,15.22
2022-09-15T08:48:27.235Z,15.38
2022-09-15T08:53:35.611Z,15.40
2022-09-15T08:58:37.694Z,15.53
2022-09-15T09:03:58.117Z,15.80
2022-09-15T09:09:06.319Z,15.92
2022-09-15T09:14:16.900Z,16.17
2022-09-15T09:19:22.051Z,15.99
2022-09-15T09:24:39.096Z,16.30
2022-09-15T09:29:44.777Z,16.30
2022-09-15T09:35:02.389Z,16.02
2022-09-15T09:40:06.825Z,15.79
2022-09-15T09:45:11.857Z,15.72
2022-09-15T09:50:34.375Z,15.71
2022-09-15T09:55:35.813Z,15.84
2022-09-15T10:00:38.369Z,16.04
2022-09-15T10:05:40.058Z,15.99
2022-09-15T10:10:49.412Z,16.11
2022-09-15T10:15:55.636Z,16.76
2022-09-15T10:20:57.463Z,17.00
2022-09-15T10:26:17.670Z,16.96
2022-09-15T10:31:28.626Z,17.29
2022-09-15T10:36:30.740Z,16.58
2022-09-15T10:41:34.964Z,16.39
2022-09-15T10:46:39.522Z,16.56
2022-09-15T10:51:59.731Z,16.69
2022-09-15T10:57:10.985Z,16.98
2022-09-15T11:02:24.220Z,16.98
2022-09-15T11:07:28.556Z,16.95
2022-09-15T11:13:05.529Z,17.06
2022-09-15T11:18:22.474Z,17.25
2022-09-15T11:23:45.261Z,17.55
2022-09-15T11:28:53.348Z,17.84
2022-09-15T11:34:12.953Z,18.04
2022-09-15T11:39:24.488Z,17.97
2022-09-15T11:44:31.375Z,17.92
2022-09-15T11:49:32.676Z,17.98
2022-09-15T11:54:45.729Z,18.15
2022-09-15T11:59:51.983Z,18.50
2022-09-15T12:04:59.520Z,18.64
2022-09-15T12:10:06.332Z,19.54
2022-09-15T12:15:12.338Z,18.72
2022-09-15T12:20:17.140Z,18.89
2022-09-15T12:25:21.943Z,18.31
2022-09-15T12:30:39.880Z,17.84
2022-09-15T12:35:41.165Z,17.77
2022-09-15T12:40:42.605Z,18.43
2022-09-15T12:45:53.238Z,19.01
2022-09-15T12:51:02.348Z,18.88
2022-09-15T12:56:07.207Z,18.79
2022-09-15T13:01:30.183Z,19.01
2022-09-15T13:06:34.956Z,19.30
2022-09-15T13:11:39.394Z,19.36
2022-09-15T13:16:41.016Z,18.78
2022-09-15T13:21:44.753Z,18.35
2022-09-15T13:26:50.499Z,18.30
2022-09-15T13:32:15.652Z,17.87
2022-09-15T13:43:23.449Z,16.97
2022-09-15T13:48:31.025Z,16.89
2022-09-15T13:53:55.438Z,16.80
2022-09-15T13:59:05.318Z,17.08
2022-09-15T14:04:16.818Z,17.05
2022-09-15T14:09:20.143Z,17.13
2022-09-15T14:14:27.791Z,17.19
2022-09-15T14:19:34.173Z,17.47
2022-09-15T14:24:40.029Z,17.42
2022-09-15T14:29:46.117Z,17.55
2022-09-15T14:39:56.520Z,17.40
2022-09-15T14:50:33.588Z,16.81
2022-09-15T14:55:48.162Z,16.54
2022-09-15T15:00:55.677Z,16.41
2022-09-15T15:06:28.096Z,16.48
2022-09-15T15:11:25.590Z,16.53
2022-09-15T15:16:28.469Z,16.87
2022-09-15T15:21:38.193Z,16.68
2022-09-15T15:26:40.992Z,16.74
2022-09-15T15:31:42.398Z,16.67
2022-09-15T15:36:43.787Z,16.57
2022-09-15T15:41:45.109Z,16.36
2022-09-15T15:46:54.301Z,16.19
2022-09-15T15:51:56.829Z,16.13
2022-09-15T15:57:04.244Z,16.04
2022-09-15T16:02:10.255Z,16.07
2022-09-15T16:07:16.570Z,16.21
2022-09-15T16:12:17.943Z,16.35
2022-09-15T16:17:19.275Z,16.45
2022-09-15T16:22:21.058Z,16.35
2022-09-15T16:27:22.391Z,16.23
2022-09-15T16:32:24.793Z,16.18
2022-09-15T16:37:26.089Z,15.89
2022-09-15T16:42:27.457Z,15.97
2022-09-15T16:47:30.618Z,15.75
2022-09-15T16:52:32.100Z,15.56
2022-09-15T16:57:33.422Z,15.54
2022-09-15T17:02:34.727Z,15.39
2022-09-15T17:07:36.040Z,15.18
2022-09-15T17:12:37.740Z,15.23
2022-09-15T17:17:39.075Z,15.03
2022-09-15T17:22:40.643Z,14.98
2022-09-15T17:27:42.061Z,14.87
2022-09-15T17:32:43.367Z,14.73
2022-09-15T17:37:45.500Z,14.75
2022-09-15T17:42:47.483Z,14.72
2022-09-15T17:47:48.828Z,14.60
2022-09-15T17:52:50.312Z,14.54
2022-09-15T17:57:51.699Z,14.53
2022-09-15T18:02:54.497Z,14.35
2022-09-15T18:07:56.896Z,14.26
2022-09-15T18:12:58.321Z,14.22
2022-09-15T18:18:02.794Z,14.21
2022-09-15T18:23:04.113Z,14.05
2022-09-15T18:28:05.428Z,14.07
2022-09-15T18:33:08.040Z,13.87
2022-09-15T18:38:10.143Z,13.82
2022-09-15T18:43:12.076Z,13.61
2022-09-15T18:48:13.583Z,13.55
2022-09-15T18:53:14.945Z,13.42
2022-09-15T18:58:17.661Z,13.48
2022-09-15T19:03:22.340Z,12.88
2022-09-15T19:08:26.091Z,12.33
2022-09-15T19:13:28.817Z,12.22
2022-09-15T19:18:31.533Z,12.10
2022-09-15T19:23:35.983Z,12.13
2022-09-15T19:28:39.957Z,12.02
2022-09-15T19:33:41.792Z,12.11
2022-09-15T19:38:44.388Z,12.13
2022-09-15T19:43:51.606Z,12.19
2022-09-15T19:48:53.421Z,12.09
2022-09-15T19:53:55.813Z,12.01
2022-09-15T19:58:57.855Z,11.97
2022-09-15T20:09:20.781Z,11.96
2022-09-15T20:14:22.210Z,11.85
2022-09-15T20:19:26.287Z,11.69
2022-09-15T20:24:27.869Z,11.77
2022-09-15T20:29:29.201Z,11.67
2022-09-15T20:34:30.591Z,11.62
2022-09-15T20:39:32.100Z,11.62
2022-09-15T20:44:33.485Z,11.59
2022-09-15T20:49:40.152Z,11.46
2022-09-15T20:54:44.724Z,11.43
2022-09-15T20:59:46.124Z,11.49
2022-09-15T21:04:47.764Z,11.48
2022-09-15T21:09:49.170Z,11.31
2022-09-15T21:14:51.690Z,11.34
2022-09-15T21:19:54.332Z,11.26
2022-09-15T21:24:58.058Z,11.34
2022-09-15T21:29:59.949Z,11.12
2022-09-15T21:35:03.209Z,11.23
2022-09-15T21:40:05.204Z,11.06
2022-09-15T21:45:07.437Z,11.14
2022-09-15T21:50:08.977Z,11.04
2022-09-15T21:55:10.446Z,11.00
2022-09-15T22:00:12.332Z,11.02
2022-09-15T22:05:13.774Z,10.97
2022-09-15T22:10:15.285Z,10.96
2022-09-15T22:15:16.689Z,10.93
2022-09-15T22:20:18.193Z,10.84
2022-09-15T22:25:21.881Z,10.86
2022-09-15T22:30:23.772Z,10.82
2022-09-15T22:35:25.222Z,10.82
2022-09-15T22:40:26.710Z,10.92
2022-09-15T22:45:30.537Z,10.96
2022-09-15T22:50:32.317Z,10.91
2022-09-15T22:55:33.676Z,10.96
2022-09-15T23:00:37.705Z,11.01
2022-09-15T23:05:46.421Z,11.11
2022-09-15T23:10:48.846Z,11.07
2022-09-15T23:15:53.262Z,11.04
2022-09-15T23:21:01.253Z,10.95
2022-09-15T23:26:03.581Z,10.90
2022-09-15T23:31:05.474Z,10.95
2022-09-15T23:36:08.092Z,10.79
2022-09-15T23:41:09.962Z,10.80
2022-09-15T23:46:11.655Z,10.70
2022-09-15T23:51:13.058Z,10.68
2022-09-15T23:56:14.436Z,10.73
